createdAt,value
2018-12-25T00:02:29.113Z,7.00
2018-12-25T00:07:31.201Z,6.00
2018-12-25T00:12:33.312Z,6.62
2018-12-25T00:17:35.442Z,6.05
2018-12-25T00:22:37.527Z,6.08
2018-12-25T00:27:39.574Z,5.42
2018-12-25T00:32:41.670Z,6.20
2018-12-25T00:37:43.914Z,5.65
2018-12-25T00:42:45.842Z,5.55
2018-12-25T00:47:47.954Z,5.37
2018-12-25T00:52:49.973Z,5.53
2018-12-25T00:57:52.041Z,5.22
2018-12-25T01:02:54.125Z,5.50
2018-12-25T01:07:56.151Z,4.83
2018-12-25T01:12:58.204Z,5.08
2018-12-25T01:18:00.238Z,5.33
2018-12-25T01:23:02.273Z,5.05
2018-12-25T01:28:04.727Z,6.17
2018-12-25T01:33:06.923Z,5.50
2018-12-25T01:38:08.930Z,5.90
2018-12-25T01:43:11.291Z,6.10
2018-12-25T01:48:13.352Z,5.58
2018-12-25T01:53:15.506Z,5.47
2018-12-25T01:58:17.572Z,5.85
2018-12-25T02:03:19.556Z,5.75
2018-12-25T02:08:21.771Z,5.87
2018-12-25T02:13:23.811Z,5.97
2018-12-25T02:18:26.009Z,5.78
2018-12-25T02:23:28.043Z,5.87
2018-12-25T02:28:30.071Z,5.40
2018-12-25T02:33:32.101Z,5.95
2018-12-25T02:38:34.194Z,6.17
2018-12-25T02:43:36.608Z,5.97
2018-12-25T02:48:38.800Z,5.67
2018-12-25T02:53:40.806Z,6.30
2018-12-25T02:58:44.669Z,6.33
2018-12-25T03:03:46.715Z,6.53
2018-12-25T03:08:49.049Z,6.45
2018-12-25T03:13:51.043Z,5.80
2018-12-25T03:18:53.076Z,6.42
2018-12-25T03:23:55.143Z,6.03
2018-12-25T03:28:57.216Z,6.10
2018-12-25T03:33:59.228Z,6.92
2018-12-25T03:39:01.331Z,7.15
2018-12-25T03:44:03.353Z,7.00
2018-12-25T03:49:05.432Z,6.50
2018-12-25T03:54:07.498Z,7.05
2018-12-25T03:59:09.509Z,6.33
2018-12-25T04:04:11.540Z,7.03
2018-12-25T04:09:13.529Z,6.90
2018-12-25T04:14:15.736Z,6.83
2018-12-25T04:19:17.954Z,6.60
2018-12-25T04:24:19.998Z,6.80
2018-12-25T04:29:22.073Z,6.33
2018-12-25T04:34:24.075Z,6.45
2018-12-25T04:39:26.452Z,6.95
2018-12-25T04:44:28.759Z,7.40
2018-12-25T04:49:30.942Z,7.25
2018-12-25T04:54:32.947Z,6.67
2018-12-25T04:59:35.049Z,6.55
2018-12-25T05:04:37.114Z,6.33
2018-12-25T05:09:39.134Z,6.70
2018-12-25T05:14:41.232Z,6.90
2018-12-25T05:19:43.275Z,6.65
2018-12-25T05:24:45.324Z,7.30
2018-12-25T05:29:47.370Z,7.70
2018-12-25T05:34:49.695Z,7.08
2018-12-25T05:39:51.770Z,6.85
2018-12-25T05:44:53.840Z,7.25
2018-12-25T05:49:55.846Z,7.55
2018-12-25T05:54:57.933Z,6.75
2018-12-25T06:00:00.291Z,7.30
2018-12-25T06:05:02.340Z,6.80
2018-12-25T06:10:04.521Z,7.42
2018-12-25T06:15:06.581Z,7.45
2018-12-25T06:20:08.604Z,7.05
2018-12-25T06:25:10.791Z,6.67
2018-12-25T06:30:13.101Z,8.18
2018-12-25T06:35:15.163Z,8.00
2018-12-25T06:40:17.209Z,7.92
2018-12-25T06:45:19.248Z,7.97
2018-12-25T06:50:21.706Z,8.03
2018-12-25T06:55:24.999Z,7.80
2018-12-25T07:00:26.991Z,8.35
2018-12-25T07:05:29.033Z,7.90
2018-12-25T07:10:31.095Z,8.13
2018-12-25T07:15:33.561Z,7.87
2018-12-25T07:20:36.001Z,8.08
2018-12-25T07:25:38.041Z,7.97
2018-12-25T07:30:40.224Z,7.75
2018-12-25T07:35:42.242Z,7.92
2018-12-25T07:40:44.288Z,8.63
2018-12-25T07:45:46.254Z,8.70
2018-12-25T07:50:48.372Z,8.80
2018-12-25T07:55:50.934Z,8.75
2018-12-25T08:00:52.981Z,8.50
2018-12-25T08:05:54.976Z,8.78
2018-12-25T08:10:57.232Z,8.98
2018-12-25T08:15:59.267Z,9.05
2018-12-25T08:21:01.306Z,8.90
2018-12-25T08:26:03.344Z,8.48
2018-12-25T08:31:05.360Z,8.80
2018-12-25T08:36:07.381Z,8.40
2018-12-25T08:41:09.822Z,8.50
2018-12-25T08:46:11.853Z,8.55
2018-12-25T08:51:13.931Z,9.03
2018-12-25T08:56:16.119Z,9.65
2018-12-25T09:01:18.163Z,8.63
2018-12-25T09:06:20.394Z,8.60
2018-12-25T09:11:22.723Z,9.10
2018-12-25T09:16:26.659Z,9.05
2018-12-25T09:21:28.706Z,8.90
2018-12-25T09:26:30.674Z,8.95
2018-12-25T09:31:32.661Z,9.68
2018-12-25T09:36:34.712Z,8.90
2018-12-25T09:41:36.679Z,9.73
2018-12-25T09:46:38.673Z,8.88
2018-12-25T09:51:40.744Z,9.15
2018-12-25T09:56:43.010Z,8.70
2018-12-25T10:01:45.137Z,9.05
2018-12-25T10:06:47.180Z,9.13
2018-12-25T10:11:49.542Z,9.75
2018-12-25T10:16:52.010Z,9.50
2018-12-25T10:21:54.015Z,9.50
2018-12-25T10:26:56.049Z,9.00
2018-12-25T10:31:58.101Z,9.10
2018-12-25T10:37:02.190Z,9.83
2018-12-25T10:42:04.287Z,9.30
2018-12-25T10:47:06.328Z,9.78
2018-12-25T10:52:11.801Z,10.35
2018-12-25T10:57:12.414Z,9.93
2018-12-25T11:02:14.750Z,10.70
2018-12-25T11:07:16.884Z,10.18
2018-12-25T11:12:19.067Z,9.75
2018-12-25T11:17:21.061Z,10.43
2018-12-25T11:22:23.105Z,10.40
2018-12-25T11:27:25.138Z,10.08
2018-12-25T11:32:27.197Z,10.25
2018-12-25T11:37:29.245Z,11.10
2018-12-25T11:42:31.292Z,10.80
2018-12-25T11:47:33.318Z,10.20
2018-12-25T11:52:35.550Z,10.35
2018-12-25T11:57:37.619Z,16.57
2018-12-25T12:02:39.605Z,11.50
2018-12-25T12:07:41.672Z,12.15
2018-12-25T12:12:43.736Z,10.80
2018-12-25T12:17:48.311Z,10.45
2018-12-25T12:22:50.380Z,10.78
2018-12-25T12:27:53.111Z,10.18
2018-12-25T12:32:55.111Z,10.55
2018-12-25T12:37:57.277Z,10.40
2018-12-25T12:42:59.712Z,10.72
2018-12-25T12:48:01.771Z,10.18
2018-12-25T12:53:04.173Z,10.93
2018-12-25T12:58:07.900Z,10.25
2018-12-25T13:03:09.945Z,9.85
2018-12-25T13:08:12.192Z,10.10
2018-12-25T13:13:14.231Z,11.30
2018-12-25T13:18:16.433Z,11.12
2018-12-25T13:23:18.420Z,10.28
2018-12-25T13:28:20.604Z,10.70
2018-12-25T13:33:22.967Z,11.57
2018-12-25T13:38:25.019Z,10.95
2018-12-25T13:43:27.132Z,11.78
2018-12-25T13:48:29.178Z,11.00
2018-12-25T13:53:31.570Z,10.82
2018-12-25T13:58:33.594Z,11.75
2018-12-25T14:03:35.654Z,11.12
2018-12-25T14:08:37.685Z,10.58
2018-12-25T14:13:39.653Z,10.80
2018-12-25T14:18:41.687Z,10.98
2018-12-25T14:23:43.748Z,10.93
2018-12-25T14:28:45.749Z,11.05
2018-12-25T14:33:47.777Z,10.90
2018-12-25T14:38:49.776Z,10.53
2018-12-25T14:43:51.743Z,10.15
2018-12-25T14:48:53.759Z,11.40
2018-12-25T14:53:55.775Z,10.90
2018-12-25T14:58:58.067Z,12.03
2018-12-25T15:04:00.119Z,10.53
2018-12-25T15:09:03.827Z,10.65
2018-12-25T15:14:05.832Z,11.10
2018-12-25T15:19:07.878Z,10.38
2018-12-25T15:24:09.856Z,9.93
2018-12-25T15:29:11.877Z,9.78
2018-12-25T15:34:13.900Z,10.70
2018-12-25T15:39:15.988Z,10.63
2018-12-25T15:44:18.029Z,14.00
2018-12-25T15:49:20.084Z,11.12
2018-12-25T15:54:22.306Z,11.22
2018-12-25T15:59:24.504Z,10.85
2018-12-25T16:04:26.532Z,10.95
2018-12-25T16:09:28.580Z,12.40
2018-12-25T16:14:30.582Z,11.43
2018-12-25T16:19:32.553Z,12.03
2018-12-25T16:24:34.591Z,13.03
2018-12-25T16:29:36.755Z,12.90
2018-12-25T16:34:38.862Z,12.65
2018-12-25T16:39:40.891Z,13.28
2018-12-25T16:44:43.351Z,14.10
2018-12-25T16:49:45.331Z,14.78
2018-12-25T16:54:47.432Z,13.78
2018-12-25T16:59:49.778Z,13.83
2018-12-25T17:04:52.047Z,14.43
2018-12-25T17:09:54.078Z,14.43
2018-12-25T17:14:56.311Z,13.28
2018-12-25T17:19:58.314Z,14.50
2018-12-25T17:25:00.821Z,12.80
2018-12-25T17:30:03.697Z,14.43
2018-12-25T17:35:06.081Z,14.73
2018-12-25T17:40:08.298Z,16.48
2018-12-25T17:45:10.330Z,14.83
2018-12-25T17:50:12.722Z,14.38
2018-12-25T17:55:15.365Z,14.28
2018-12-25T18:00:17.353Z,14.45
2018-12-25T18:05:19.390Z,13.95
2018-12-25T18:10:23.212Z,12.80
2018-12-25T18:15:25.270Z,13.50
2018-12-25T18:20:27.329Z,13.10
2018-12-25T18:25:29.812Z,14.03
2018-12-25T18:30:31.764Z,12.63
2018-12-25T18:35:34.173Z,13.08
2018-12-25T18:40:36.232Z,13.48
2018-12-25T18:45:38.206Z,12.82
2018-12-25T18:50:40.306Z,12.90
2018-12-25T18:55:42.366Z,12.58
2018-12-25T19:00:45.273Z,12.85
2018-12-25T19:05:47.467Z,12.05
2018-12-25T19:10:49.550Z,12.78
2018-12-25T19:15:54.575Z,11.97
2018-12-25T19:20:56.966Z,13.05
2018-12-25T19:25:59.025Z,14.45
2018-12-25T19:31:01.359Z,13.00
2018-12-25T19:36:03.586Z,13.43
2018-12-25T19:41:05.593Z,12.07
2018-12-25T19:46:07.660Z,12.23
2018-12-25T19:51:09.741Z,12.33
2018-12-25T19:56:12.041Z,12.20
2018-12-25T20:01:14.405Z,13.65
2018-12-25T20:07:16.791Z,12.70
2018-12-25T20:13:00.947Z,11.57
2018-12-25T20:18:47.786Z,11.12
2018-12-25T20:24:19.543Z,12.37
2018-12-25T20:30:00.335Z,11.88
2018-12-25T20:35:44.121Z,12.15
2018-12-25T20:41:29.471Z,12.35
2018-12-25T20:47:09.115Z,11.63
2018-12-25T20:52:57.341Z,10.80
2018-12-25T20:58:36.330Z,12.30
2018-12-25T21:04:21.950Z,12.70
2018-12-25T21:10:16.029Z,12.43
2018-12-25T21:16:02.543Z,11.93
2018-12-25T21:21:43.734Z,13.48
2018-12-25T21:27:22.338Z,11.97
2018-12-25T21:32:24.801Z,13.65
2018-12-25T21:37:28.914Z,13.08
2018-12-25T21:42:31.436Z,12.30
2018-12-25T21:47:33.760Z,12.58
2018-12-25T21:52:36.361Z,13.28
2018-12-25T21:57:38.842Z,13.15
2018-12-25T22:02:41.233Z,17.85
2018-12-25T22:07:43.291Z,14.15
2018-12-25T22:12:45.374Z,12.37
2018-12-25T22:17:47.435Z,13.72
2018-12-25T22:22:49.461Z,12.75
2018-12-25T22:27:51.689Z,13.25
2018-12-25T22:32:53.727Z,13.58
2018-12-25T22:37:55.756Z,13.58
2018-12-25T22:42:57.789Z,12.73
2018-12-25T22:47:59.897Z,14.55
2018-12-25T22:53:01.998Z,14.75
2018-12-25T22:58:04.300Z,14.75
2018-12-25T23:03:06.365Z,13.32
2018-12-25T23:08:08.731Z,13.90
2018-12-25T23:13:11.963Z,12.63
2018-12-25T23:18:14.143Z,14.13
2018-12-25T23:23:16.196Z,14.50
2018-12-25T23:28:18.273Z,14.55
2018-12-25T23:33:20.264Z,14.35
2018-12-25T23:38:22.427Z,14.05
2018-12-25T23:43:24.387Z,14.23
2018-12-25T23:48:26.451Z,13.40
2018-12-25T23:53:28.464Z,14.55
2018-12-25T23:58:30.610Z,14.80
